Time;durP1;ratioP1;P1;durP2;ratioP2;P2;SDS_P1;SDS_P2;PMS_P1;PMS_P2;Temp;Humidity;BMP_temperature;BMP_pressure;BME280_temperature;BME280_humidity;BME280_pressure;Samples;Min_cycle;Max_cycle;Signal;HPM_P1;HPM_P2
2022/12/25 00:04:06;;;;;;;;;;;18.00;56.00;;;;;;10247029;28;810;-70
2022/12/25 00:09:02;;;;;;;;;;;18.00;55.90;;;;;;10248156;28;793;-70
2022/12/25 00:13:57;;;;;;;;;;;18.00;56.00;;;;;;10247535;28;869;-70
2022/12/25 00:18:53;;;;;;;;;;;18.00;56.00;;;;;;10247120;28;1967;-70
2022/12/25 00:23:48;;;;;;;;;;;17.90;55.90;;;;;;10247365;28;752;-70
2022/12/25 00:28:43;;;;;;;;;;;18.00;55.90;;;;;;10246665;28;756;-70
2022/12/25 00:33:39;;;;;;;;;;;18.00;55.80;;;;;;10246593;28;1216;-70
2022/12/25 00:38:34;;;;;;;;;;;18.00;55.90;;;;;;10246262;28;1945;-70
2022/12/25 00:43:30;;;;;;;;;;;18.00;55.90;;;;;;10245328;28;1003;-70
2022/12/25 00:48:25;;;;;;;;;;;18.00;55.80;;;;;;10245745;28;798;-70
2022/12/25 00:53:20;;;;;;;;;;;18.00;55.80;;;;;;10244741;28;771;-70
2022/12/25 00:58:16;;;;;;;;;;;18.00;55.80;;;;;;10245971;28;1972;-70
2022/12/25 01:03:11;;;;;;;;;;;18.00;55.70;;;;;;10245392;28;913;-70
2022/12/25 01:08:06;;;;;;;;;;;17.90;55.70;;;;;;10245100;28;779;-70
2022/12/25 01:13:02;;;;;;;;;;;17.90;55.70;;;;;;10244784;28;1138;-70
2022/12/25 01:17:57;;;;;;;;;;;17.90;55.80;;;;;;10244033;28;1953;-70
2022/12/25 01:22:52;;;;;;;;;;;17.90;55.70;;;;;;10244823;28;909;-70
2022/12/25 01:27:48;;;;;;;;;;;17.90;55.70;;;;;;10244475;28;929;-70
2022/12/25 01:32:43;;;;;;;;;;;17.90;55.60;;;;;;10244076;28;1309;-70
2022/12/25 01:37:38;;;;;;;;;;;17.90;55.70;;;;;;10244841;28;1964;-70
2022/12/25 01:42:34;;;;;;;;;;;17.90;55.80;;;;;;10244901;28;996;-70
2022/12/25 01:47:29;;;;;;;;;;;17.90;55.60;;;;;;10244020;28;833;-70
2022/12/25 01:52:25;;;;;;;;;;;17.90;55.70;;;;;;10243213;28;1281;-70
2022/12/25 01:57:20;;;;;;;;;;;17.90;55.70;;;;;;10243200;28;1940;-70
2022/12/25 02:02:15;;;;;;;;;;;17.90;55.60;;;;;;10243960;28;978;-70
2022/12/25 02:07:11;;;;;;;;;;;17.90;55.70;;;;;;10252222;28;933;-70
2022/12/25 02:12:06;;;;;;;;;;;17.90;55.70;;;;;;10252382;28;878;-70
2022/12/25 02:17:01;;;;;;;;;;;17.90;55.80;;;;;;10251767;28;1966;-70
2022/12/25 02:21:57;;;;;;;;;;;17.80;55.70;;;;;;10252060;28;850;-70
2022/12/25 02:26:52;;;;;;;;;;;17.80;55.70;;;;;;10251371;28;845;-70
2022/12/25 02:31:47;;;;;;;;;;;17.80;55.80;;;;;;10251732;28;874;-70
2022/12/25 02:36:43;;;;;;;;;;;17.80;55.80;;;;;;10251608;28;1977;-70
2022/12/25 02:41:38;;;;;;;;;;;17.80;55.80;;;;;;10249967;28;889;-70
2022/12/25 03:07:30;;;;;;;;;;;17.90;55.60;;;;;;10249664;28;612;-72
2022/12/25 03:12:26;;;;;;;;;;;17.90;55.60;;;;;;10249820;28;891;-72
2022/12/25 03:17:21;;;;;;;;;;;17.90;55.60;;;;;;10248993;28;1965;-72
2022/12/25 03:27:30;;;;;;;;;;;17.80;55.50;;;;;;10248812;28;676;-72
2022/12/25 03:32:26;;;;;;;;;;;17.80;55.50;;;;;;10249323;28;1066;-72
2022/12/25 04:40:07;;;;;;;;;;;17.80;55.60;;;;;;10246016;28;616;-72
2022/12/25 04:45:02;;;;;;;;;;;17.80;55.60;;;;;;10246979;28;922;-72
2022/12/25 04:49:57;;;;;;;;;;;17.70;55.60;;;;;;10246659;28;850;-72
2022/12/25 04:54:53;;;;;;;;;;;17.80;55.60;;;;;;10246109;28;1898;-72
2022/12/25 04:59:48;;;;;;;;;;;17.80;55.60;;;;;;10245763;28;943;-72
2022/12/25 05:04:44;;;;;;;;;;;17.80;55.60;;;;;;10245335;28;1042;-72
2022/12/25 05:09:40;;;;;;;;;;;17.80;55.50;;;;;;10245372;28;856;-72
2022/12/25 05:14:35;;;;;;;;;;;17.80;55.50;;;;;;10245084;28;1959;-72
2022/12/25 05:19:31;;;;;;;;;;;17.80;55.50;;;;;;10245671;28;810;-72
2022/12/25 05:24:26;;;;;;;;;;;17.80;55.40;;;;;;10245406;28;938;-72
2022/12/25 05:29:22;;;;;;;;;;;17.80;55.40;;;;;;10244727;28;775;-72
2022/12/25 05:34:17;;;;;;;;;;;17.80;55.30;;;;;;10244024;28;1906;-72
2022/12/25 05:39:12;;;;;;;;;;;17.90;55.40;;;;;;10243329;28;846;-72
2022/12/25 05:44:08;;;;;;;;;;;17.90;55.30;;;;;;10245084;28;876;-69
2022/12/25 05:49:04;;;;;;;;;;;17.90;55.40;;;;;;10243601;28;1059;-74
2022/12/25 05:53:59;;;;;;;;;;;17.90;55.30;;;;;;10244841;28;816;-74
2022/12/25 05:58:55;;;;;;;;;;;17.90;55.30;;;;;;10244274;28;1902;-76
2022/12/25 06:03:50;;;;;;;;;;;17.90;55.30;;;;;;10244273;28;849;-75
2022/12/25 06:08:46;;;;;;;;;;;17.90;55.20;;;;;;10244184;28;828;-69
2022/12/25 06:13:41;;;;;;;;;;;18.00;55.20;;;;;;10244061;28;798;-70
2022/12/25 06:18:36;;;;;;;;;;;18.10;56.00;;;;;;10243169;28;1969;-71
2022/12/25 06:23:32;;;;;;;;;;;18.10;56.40;;;;;;10243830;28;866;-71
2022/12/25 06:28:27;;;;;;;;;;;18.10;56.10;;;;;;10243790;28;858;-70
2022/12/25 06:33:22;;;;;;;;;;;18.10;56.20;;;;;;10242801;28;1426;-70
2022/12/25 06:38:18;;;;;;;;;;;18.20;57.00;;;;;;10242938;28;1910;-69
2022/12/25 06:43:13;;;;;;;;;;;18.20;57.20;;;;;;10243684;28;842;-68
2022/12/25 06:48:08;;;;;;;;;;;18.30;57.40;;;;;;10243005;28;918;-69
2022/12/25 06:53:04;;;;;;;;;;;18.30;57.40;;;;;;10251154;28;806;-69
2022/12/25 06:57:59;;;;;;;;;;;18.30;57.60;;;;;;10250902;28;1959;-69
2022/12/25 07:02:55;;;;;;;;;;;18.30;57.70;;;;;;10250614;28;843;-70
2022/12/25 07:07:50;;;;;;;;;;;18.30;57.70;;;;;;10250329;28;818;-70
2022/12/25 07:12:45;;;;;;;;;;;18.30;57.80;;;;;;10250248;28;921;-70
2022/12/25 07:17:41;;;;;;;;;;;18.30;57.80;;;;;;10249925;28;1969;-69
2022/12/25 07:22:36;;;;;;;;;;;18.30;57.90;;;;;;10249137;28;943;-69
2022/12/25 07:27:31;;;;;;;;;;;18.30;57.80;;;;;;10249074;28;928;-70
2022/12/25 07:32:27;;;;;;;;;;;18.30;57.80;;;;;;10248651;28;1081;-69
2022/12/25 07:37:22;;;;;;;;;;;18.30;57.70;;;;;;10248775;28;1967;-70
2022/12/25 07:42:17;;;;;;;;;;;18.30;57.80;;;;;;10249127;28;943;-71
2022/12/25 07:47:13;;;;;;;;;;;18.40;57.90;;;;;;10247714;28;1042;-71
2022/12/25 07:52:08;;;;;;;;;;;18.30;57.80;;;;;;10248110;28;805;-71
2022/12/25 07:57:03;;;;;;;;;;;18.30;57.70;;;;;;10248474;28;1911;-71
2022/12/25 08:02:01;;;;;;;;;;;18.40;57.80;;;;;;10247160;28;967;-70
2022/12/25 08:06:57;;;;;;;;;;;18.40;57.70;;;;;;10247485;28;1089;-70
2022/12/25 08:11:52;;;;;;;;;;;18.40;57.70;;;;;;10247934;28;893;-71
2022/12/25 08:16:47;;;;;;;;;;;18.40;57.60;;;;;;10247185;28;1952;-71
2022/12/25 08:21:43;;;;;;;;;;;18.40;57.70;;;;;;10247262;28;920;-71
2022/12/25 08:26:38;;;;;;;;;;;18.40;57.80;;;;;;10246924;28;732;-71
2022/12/25 08:31:33;;;;;;;;;;;18.40;57.80;;;;;;10246738;28;875;-71
2022/12/25 08:36:29;;;;;;;;;;;18.40;57.80;;;;;;10247521;28;1979;-66
2022/12/25 08:41:24;;;;;;;;;;;18.40;57.90;;;;;;10245480;28;11093;-65
2022/12/25 08:46:19;;;;;;;;;;;18.40;57.90;;;;;;10246970;28;842;-66
2022/12/25 08:51:15;;;;;;;;;;;18.40;57.80;;;;;;10245743;28;970;-66
2022/12/25 08:56:10;;;;;;;;;;;18.50;57.90;;;;;;10245841;28;1910;-66
2022/12/25 09:01:06;;;;;;;;;;;18.50;58.00;;;;;;10246413;28;869;-65
2022/12/25 09:06:01;;;;;;;;;;;18.40;58.00;;;;;;10246122;28;889;-66
2022/12/25 09:10:56;;;;;;;;;;;18.50;58.10;;;;;;10245558;28;937;-66
2022/12/25 09:15:52;;;;;;;;;;;18.50;58.10;;;;;;10244344;28;1902;-66
2022/12/25 09:20:47;;;;;;;;;;;18.50;58.30;;;;;;10244477;28;1000;-66
2022/12/25 09:25:42;;;;;;;;;;;18.50;58.50;;;;;;10244544;28;1117;-66
2022/12/25 09:30:38;;;;;;;;;;;18.50;58.50;;;;;;10244345;28;1002;-66
2022/12/25 09:35:33;;;;;;;;;;;18.60;58.40;;;;;;10244775;28;1909;-67
2022/12/25 09:40:28;;;;;;;;;;;18.50;58.50;;;;;;10244508;28;988;-69
2022/12/25 09:45:24;;;;;;;;;;;18.40;58.50;;;;;;10244356;28;862;-68
2022/12/25 09:50:19;;;;;;;;;;;18.30;58.40;;;;;;10244296;28;772;-68
2022/12/25 09:55:17;;;;;;;;;;;18.30;58.40;;;;;;10244648;28;1906;-69
2022/12/25 10:00:12;;;;;;;;;;;18.30;58.20;;;;;;10244627;28;802;-67
2022/12/25 10:05:07;;;;;;;;;;;18.50;58.30;;;;;;10243727;28;826;-69
2022/12/25 10:10:03;;;;;;;;;;;18.50;58.50;;;;;;10243824;28;865;-71
2022/12/25 10:14:58;;;;;;;;;;;18.50;58.60;;;;;;10243638;28;1969;-72
2022/12/25 10:19:53;;;;;;;;;;;18.50;58.60;;;;;;10243659;28;862;-67
2022/12/25 10:24:49;;;;;;;;;;;18.40;58.50;;;;;;10247709;28;924;-68
2022/12/25 10:29:45;;;;;;;;;;;18.50;58.50;;;;;;10252728;28;814;-68
2022/12/25 10:34:42;;;;;;;;;;;18.50;58.50;;;;;;10251650;28;1898;-68
2022/12/25 10:39:37;;;;;;;;;;;18.50;58.40;;;;;;10250488;28;1020;-68
2022/12/25 10:44:33;;;;;;;;;;;18.50;58.40;;;;;;10250965;28;810;-68
2022/12/25 10:49:29;;;;;;;;;;;18.50;58.30;;;;;;10250715;28;954;-68
2022/12/25 10:54:24;;;;;;;;;;;18.50;58.30;;;;;;10250567;28;1898;-68
2022/12/25 10:59:19;;;;;;;;;;;18.50;58.40;;;;;;10250457;28;806;-68
2022/12/25 11:04:15;;;;;;;;;;;18.50;58.50;;;;;;10249886;28;920;-68
2022/12/25 11:09:10;;;;;;;;;;;18.40;58.40;;;;;;10250176;28;878;-68
2022/12/25 11:14:05;;;;;;;;;;;18.50;58.40;;;;;;10249874;28;1213;-68
2022/12/25 11:19:01;;;;;;;;;;;18.50;58.50;;;;;;10248776;28;1910;-69
2022/12/25 11:23:56;;;;;;;;;;;18.40;58.40;;;;;;10250007;28;822;-67
2022/12/25 11:28:51;;;;;;;;;;;18.50;58.70;;;;;;10249125;28;1003;-69
2022/12/25 11:33:47;;;;;;;;;;;18.40;58.70;;;;;;10249302;28;1436;-72
2022/12/25 11:38:42;;;;;;;;;;;18.30;58.90;;;;;;10248399;28;1979;-71
2022/12/25 11:43:37;;;;;;;;;;;18.30;58.90;;;;;;10248817;28;968;-74
2022/12/25 11:48:33;;;;;;;;;;;18.40;59.30;;;;;;10248613;28;898;-74
2022/12/25 11:53:29;;;;;;;;;;;18.40;59.60;;;;;;10248223;28;842;-74
2022/12/25 11:58:24;;;;;;;;;;;18.20;59.20;;;;;;10248227;28;1906;-74
2022/12/25 12:03:19;;;;;;;;;;;18.20;59.10;;;;;;10247337;28;922;-74
2022/12/25 12:08:15;;;;;;;;;;;18.20;58.90;;;;;;10248406;28;867;-74
2022/12/25 12:13:10;;;;;;;;;;;18.20;58.80;;;;;;10247637;28;799;-74
2022/12/25 12:18:05;;;;;;;;;;;18.20;58.70;;;;;;10246814;28;1977;-74
2022/12/25 12:23:01;;;;;;;;;;;18.20;58.50;;;;;;10247839;28;806;-74
2022/12/25 12:27:56;;;;;;;;;;;18.20;58.50;;;;;;10246349;28;865;-73
2022/12/25 12:32:51;;;;;;;;;;;18.20;58.40;;;;;;10246601;28;1129;-76
2022/12/25 12:37:47;;;;;;;;;;;18.20;58.30;;;;;;10246685;28;1914;-76
2022/12/25 12:42:42;;;;;;;;;;;18.20;58.20;;;;;;10246539;28;856;-76
2022/12/25 12:47:38;;;;;;;;;;;18.20;58.20;;;;;;10246797;28;946;-76
2022/12/25 12:52:33;;;;;;;;;;;18.20;58.10;;;;;;10246937;28;806;-76
2022/12/25 12:57:31;;;;;;;;;;;18.20;58.10;;;;;;10246467;28;1902;-76
2022/12/25 13:02:29;;;;;;;;;;;18.20;58.00;;;;;;10246321;28;770;-76
2022/12/25 13:07:24;;;;;;;;;;;18.20;58.00;;;;;;10245620;28;853;-77
2022/12/25 13:12:19;;;;;;;;;;;18.20;58.00;;;;;;10245561;28;818;-74
2022/12/25 13:17:15;;;;;;;;;;;18.10;57.80;;;;;;10245641;28;1966;-77
2022/12/25 13:22:10;;;;;;;;;;;18.20;57.90;;;;;;10245769;28;819;-76
2022/12/25 13:27:06;;;;;;;;;;;18.10;57.80;;;;;;10245658;28;881;-77
2022/12/25 13:32:01;;;;;;;;;;;18.20;57.80;;;;;;10244761;28;1056;-78
2022/12/25 13:36:56;;;;;;;;;;;18.20;57.80;;;;;;10244007;28;1906;-77
2022/12/25 13:42:04;;;;;;;;;;;18.20;58.30;;;;;;10245333;28;822;-78
2022/12/25 13:46:59;;;;;;;;;;;18.20;57.70;;;;;;10241077;28;1549;-77
2022/12/25 13:51:55;;;;;;;;;;;18.20;57.70;;;;;;10243949;28;817;-77
2022/12/25 13:56:50;;;;;;;;;;;18.10;57.60;;;;;;10244170;28;1906;-77
2022/12/25 14:01:45;;;;;;;;;;;18.10;57.60;;;;;;10243310;28;803;-77
2022/12/25 14:06:41;;;;;;;;;;;18.20;57.60;;;;;;10243159;28;938;-77
2022/12/25 14:11:36;;;;;;;;;;;18.20;57.50;;;;;;10243572;28;1002;-79
2022/12/25 14:16:31;;;;;;;;;;;18.30;58.00;;;;;;10243480;28;1910;-75
2022/12/25 14:21:27;;;;;;;;;;;18.20;58.00;;;;;;10243517;28;858;-75
2022/12/25 14:26:22;;;;;;;;;;;18.50;59.40;;;;;;10243398;28;818;-75
2022/12/25 14:31:18;;;;;;;;;;;18.50;60.30;;;;;;10242697;28;834;-75
2022/12/25 14:36:13;;;;;;;;;;;18.60;60.40;;;;;;10242809;28;1914;-77
2022/12/25 14:41:09;;;;;;;;;;;18.60;60.40;;;;;;10243144;28;802;-78
2022/12/25 14:46:07;;;;;;;;;;;18.40;60.50;;;;;;10243146;28;1010;-74
2022/12/25 14:51:03;;;;;;;;;;;18.40;59.70;;;;;;10243045;28;813;-70
2022/12/25 14:55:58;;;;;;;;;;;18.50;59.50;;;;;;10243458;28;1969;-72
2022/12/25 15:00:53;;;;;;;;;;;18.50;59.50;;;;;;10242823;28;891;-73
2022/12/25 15:05:49;;;;;;;;;;;18.50;59.80;;;;;;10242727;28;906;-73
2022/12/25 15:10:44;;;;;;;;;;;18.50;59.70;;;;;;10243696;28;976;-73
2022/12/25 15:15:40;;;;;;;;;;;18.50;59.70;;;;;;10249380;28;2040;-75
2022/12/25 15:20:35;;;;;;;;;;;18.60;59.70;;;;;;10249980;28;913;-76
2022/12/25 15:25:30;;;;;;;;;;;18.60;59.60;;;;;;10249344;28;902;-75
2022/12/25 15:30:26;;;;;;;;;;;18.60;59.70;;;;;;10249104;28;978;-74
2022/12/25 15:35:21;;;;;;;;;;;18.60;59.70;;;;;;10248945;28;1983;-69
2022/12/25 15:40:16;;;;;;;;;;;18.60;59.80;;;;;;10248650;28;806;-69
2022/12/25 15:45:12;;;;;;;;;;;18.60;59.80;;;;;;10248498;28;910;-69
2022/12/25 15:50:07;;;;;;;;;;;18.60;60.20;;;;;;10247866;28;830;-74
2022/12/25 15:55:02;;;;;;;;;;;18.60;60.00;;;;;;10248170;28;1906;-76
2022/12/25 15:59:58;;;;;;;;;;;18.70;60.10;;;;;;10248426;28;877;-77
2022/12/25 16:04:54;;;;;;;;;;;18.70;60.30;;;;;;10247881;28;960;-76
2022/12/25 16:09:49;;;;;;;;;;;18.70;60.40;;;;;;10247479;28;923;-77
2022/12/25 16:14:44;;;;;;;;;;;18.70;60.60;;;;;;10247053;28;1902;-77
2022/12/25 16:19:40;;;;;;;;;;;18.70;61.50;;;;;;10248068;28;867;-77
2022/12/25 16:24:35;;;;;;;;;;;18.70;60.60;;;;;;10229119;28;763;-77
2022/12/25 16:29:30;;;;;;;;;;;18.70;60.40;;;;;;10247063;28;928;-77
2022/12/25 16:34:26;;;;;;;;;;;18.70;60.40;;;;;;10246948;28;1432;-77
2022/12/25 16:39:21;;;;;;;;;;;18.70;60.50;;;;;;10247373;28;1983;-78
2022/12/25 16:44:16;;;;;;;;;;;18.70;60.60;;;;;;10246494;28;873;-77
2022/12/25 16:49:12;;;;;;;;;;;18.90;61.00;;;;;;10246323;28;802;-79
2022/12/25 16:54:07;;;;;;;;;;;18.30;58.80;;;;;;10245495;28;900;-77
2022/12/25 16:59:03;;;;;;;;;;;17.50;59.20;;;;;;10228826;28;1902;-75
2022/12/25 17:04:00;;;;;;;;;;;17.80;60.50;;;;;;10246094;28;976;-78
2022/12/25 17:08:55;;;;;;;;;;;18.20;59.90;;;;;;10246236;28;855;-77
2022/12/25 17:13:50;;;;;;;;;;;18.30;59.40;;;;;;10246033;28;946;-76
2022/12/25 17:18:46;;;;;;;;;;;18.40;59.10;;;;;;10245142;28;1957;-76
2022/12/25 17:23:43;;;;;;;;;;;18.50;59.10;;;;;;10244988;28;759;-76
2022/12/25 17:28:39;;;;;;;;;;;18.50;59.10;;;;;;10242827;28;1138;-76
2022/12/25 17:33:34;;;;;;;;;;;18.60;59.10;;;;;;10244510;28;1191;-76
2022/12/25 17:38:29;;;;;;;;;;;18.60;59.20;;;;;;10244498;28;1906;-76
2022/12/25 17:43:25;;;;;;;;;;;18.60;59.20;;;;;;10245097;28;892;-76
2022/12/25 17:48:20;;;;;;;;;;;18.60;59.30;;;;;;10244523;28;810;-72
2022/12/25 17:53:16;;;;;;;;;;;18.70;59.40;;;;;;10244471;28;947;-72
2022/12/25 17:58:11;;;;;;;;;;;18.70;59.60;;;;;;10243966;28;1965;-73
2022/12/25 18:03:07;;;;;;;;;;;18.70;59.60;;;;;;10244494;28;925;-72
2022/12/25 18:08:04;;;;;;;;;;;18.70;59.60;;;;;;10243823;28;995;-76
2022/12/25 18:12:59;;;;;;;;;;;18.60;59.80;;;;;;10243735;28;973;-76
2022/12/25 18:17:54;;;;;;;;;;;18.40;59.80;;;;;;10243765;28;1898;-78
2022/12/25 18:22:52;;;;;;;;;;;18.40;59.90;;;;;;10244353;28;1229;-77
2022/12/25 18:27:47;;;;;;;;;;;18.40;59.70;;;;;;10243752;28;871;-75
2022/12/25 18:32:43;;;;;;;;;;;18.30;59.50;;;;;;10243725;28;1284;-78
2022/12/25 18:37:38;;;;;;;;;;;18.40;59.40;;;;;;10243283;28;1906;-77
2022/12/25 18:42:41;;;;;;;;;;;18.30;59.20;;;;;;10243878;28;810;-77
2022/12/25 18:47:36;;;;;;;;;;;18.30;59.10;;;;;;10248493;28;1157;-72
2022/12/25 18:52:31;;;;;;;;;;;18.30;58.90;;;;;;10250943;28;861;-72
2022/12/25 18:57:27;;;;;;;;;;;18.50;59.30;;;;;;10250114;28;1905;-75
2022/12/25 19:02:22;;;;;;;;;;;18.60;59.30;;;;;;10250922;28;873;-77
2022/12/25 19:07:17;;;;;;;;;;;18.50;59.50;;;;;;10250203;28;854;-82
2022/12/25 19:12:13;;;;;;;;;;;18.40;59.50;;;;;;10250605;28;875;-77
2022/12/25 19:17:09;;;;;;;;;;;18.40;59.30;;;;;;10249814;28;1906;-78
2022/12/25 19:22:04;;;;;;;;;;;18.40;59.20;;;;;;10249557;28;851;-77
2022/12/25 19:27:00;;;;;;;;;;;18.40;59.00;;;;;;10249229;28;857;-76
2022/12/25 19:31:55;;;;;;;;;;;18.30;58.90;;;;;;10249235;28;768;-76
2022/12/25 19:36:51;;;;;;;;;;;18.30;58.80;;;;;;10248289;28;1969;-77
2022/12/25 19:41:46;;;;;;;;;;;18.30;58.70;;;;;;10248865;28;853;-78
2022/12/25 19:46:41;;;;;;;;;;;18.30;58.60;;;;;;10248655;28;865;-78
2022/12/25 19:51:37;;;;;;;;;;;18.30;58.50;;;;;;10248503;28;927;-77
2022/12/25 19:56:32;;;;;;;;;;;18.30;58.50;;;;;;10247419;28;1898;-77
2022/12/25 20:01:27;;;;;;;;;;;18.40;58.50;;;;;;10247612;28;863;-77
2022/12/25 20:06:23;;;;;;;;;;;18.40;58.40;;;;;;10249173;28;1210;-78
2022/12/25 20:11:19;;;;;;;;;;;18.30;58.20;;;;;;10248006;28;877;-77
2022/12/25 20:16:14;;;;;;;;;;;18.30;58.20;;;;;;10247948;28;1965;-78
2022/12/25 20:21:09;;;;;;;;;;;18.30;58.20;;;;;;10247377;28;850;-77
2022/12/25 20:26:05;;;;;;;;;;;18.40;58.20;;;;;;10246922;28;1186;-77
2022/12/25 20:31:00;;;;;;;;;;;18.30;58.20;;;;;;10247402;28;858;-77
2022/12/25 20:35:58;;;;;;;;;;;18.30;58.10;;;;;;10246829;28;1975;-76
2022/12/25 20:40:54;;;;;;;;;;;18.40;58.20;;;;;;10247186;28;840;-77
2022/12/25 20:45:49;;;;;;;;;;;18.30;58.10;;;;;;10246825;28;869;-77
2022/12/25 20:50:44;;;;;;;;;;;18.30;58.10;;;;;;10246298;28;837;-77
2022/12/25 20:55:40;;;;;;;;;;;18.30;58.10;;;;;;10245711;28;1910;-77
2022/12/25 21:00:35;;;;;;;;;;;18.30;58.20;;;;;;10246805;28;956;-77
2022/12/25 21:05:31;;;;;;;;;;;18.20;58.10;;;;;;10244790;28;868;-77
2022/12/25 21:10:26;;;;;;;;;;;18.20;58.20;;;;;;10245737;28;892;-77
2022/12/25 21:15:22;;;;;;;;;;;18.30;58.20;;;;;;10245653;28;1960;-77
2022/12/25 21:20:17;;;;;;;;;;;18.20;58.10;;;;;;10245001;28;878;-78
2022/12/25 21:25:13;;;;;;;;;;;18.20;58.20;;;;;;10244715;28;753;-77
2022/12/25 21:30:08;;;;;;;;;;;18.20;58.20;;;;;;10245194;28;964;-77
2022/12/25 21:35:04;;;;;;;;;;;18.20;58.10;;;;;;10244493;28;1906;-76
2022/12/25 21:39:59;;;;;;;;;;;18.30;58.10;;;;;;10244321;28;870;-77
2022/12/25 21:44:54;;;;;;;;;;;18.20;58.10;;;;;;10245488;28;858;-75
2022/12/25 21:55:05;;;;;;;;;;;18.20;58.10;;;;;;10243743;28;1968;-76
2022/12/25 22:00:00;;;;;;;;;;;18.20;58.10;;;;;;10244007;28;897;-76
2022/12/25 22:04:56;;;;;;;;;;;18.20;58.10;;;;;;10243934;28;818;-77
2022/12/25 22:09:51;;;;;;;;;;;18.20;58.10;;;;;;10243907;28;903;-76
2022/12/25 22:14:50;;;;;;;;;;;18.20;58.00;;;;;;10244789;28;841;-76
2022/12/25 22:19:48;;;;;;;;;;;18.20;58.00;;;;;;10244961;28;970;-75
2022/12/25 22:24:43;;;;;;;;;;;18.20;58.00;;;;;;10251387;28;943;-74
2022/12/25 22:29:39;;;;;;;;;;;18.20;58.00;;;;;;10251801;28;853;-74
2022/12/25 22:34:34;;;;;;;;;;;18.20;58.10;;;;;;10251015;28;1397;-74
2022/12/25 22:39:30;;;;;;;;;;;18.20;58.10;;;;;;10251911;28;1905;-74
2022/12/25 22:44:25;;;;;;;;;;;18.20;58.00;;;;;;10251242;28;758;-74
2022/12/25 22:49:20;;;;;;;;;;;18.20;58.00;;;;;;10250424;28;829;-74
2022/12/25 22:54:16;;;;;;;;;;;18.20;58.00;;;;;;10250818;28;748;-74
2022/12/25 22:59:11;;;;;;;;;;;18.10;57.90;;;;;;10251142;28;1906;-74
2022/12/25 23:04:07;;;;;;;;;;;18.20;58.00;;;;;;10251309;28;1041;-74
2022/12/25 23:09:02;;;;;;;;;;;18.20;58.00;;;;;;10250558;28;876;-74
2022/12/25 23:29:40;;;;;;;;;;;18.20;57.60;;;;;;10208749;28;605;-74
2022/12/25 23:34:35;;;;;;;;;;;18.20;57.70;;;;;;10207990;28;1313;-74
2022/12/25 23:39:30;;;;;;;;;;;18.20;57.80;;;;;;10208262;28;1910;-75
2022/12/25 23:44:26;;;;;;;;;;;18.10;57.80;;;;;;10209329;28;786;-74
2022/12/25 23:49:21;;;;;;;;;;;18.20;57.90;;;;;;10209037;28;870;-75
2022/12/25 23:54:17;;;;;;;;;;;18.20;57.90;;;;;;10208483;28;768;-75
2022/12/25 23:59:12;;;;;;;;;;;18.20;57.90;;;;;;10208652;28;1902;-76
